Time;durP1;ratioP1;P1;durP2;ratioP2;P2;SDS_P1;SDS_P2;PMS_P1;PMS_P2;Temp;Humidity;BMP_temperature;BMP_pressure;BME280_temperature;BME280_humidity;BME280_pressure;Samples;Min_cycle;Max_cycle;Signal;HPM_P1;HPM_P2
2021/01/19 00:01:29;;;;;;;18.70;12.68;;;3.60;99.90;;;;;;4988791;28;20604;-72
2021/01/19 00:03:56;;;;;;;23.95;14.45;;;3.60;99.90;;;;;;5023433;28;20068;-71
2021/01/19 00:06:22;;;;;;;20.45;13.88;;;3.60;99.90;;;;;;5023047;28;20533;-72
2021/01/19 00:08:49;;;;;;;22.00;14.93;;;3.60;99.90;;;;;;5023690;28;20065;-71
2021/01/19 00:11:16;;;;;;;19.42;14.02;;;3.60;99.90;;;;;;5021349;28;20504;-72
2021/01/19 00:13:42;;;;;;;23.88;14.65;;;3.60;99.90;;;;;;5022409;28;20080;-71
2021/01/19 00:16:09;;;;;;;19.35;15.32;;;3.60;99.90;;;;;;4988073;28;20427;-72
2021/01/19 00:18:35;;;;;;;25.00;16.70;;;3.60;99.90;;;;;;5022964;28;20073;-72
2021/01/19 00:21:02;;;;;;;22.70;16.70;;;3.60;99.90;;;;;;4995050;28;20046;-71
2021/01/19 00:23:29;;;;;;;23.50;16.02;;;3.60;99.90;;;;;;5005944;28;20129;-71
2021/01/19 00:25:55;;;;;;;21.95;16.70;;;3.60;99.90;;;;;;5022044;28;20519;-71
2021/01/19 00:28:22;;;;;;;20.48;15.25;;;3.60;99.90;;;;;;4983727;28;20128;-72
2021/01/19 00:30:48;;;;;;;24.95;16.90;;;3.60;99.90;;;;;;5018219;28;20129;-72
2021/01/19 00:33:15;;;;;;;25.58;16.02;;;3.60;99.90;;;;;;5005732;28;20560;-70
2021/01/19 00:35:42;;;;;;;20.70;15.13;;;3.60;99.90;;;;;;5003933;28;20045;-71
2021/01/19 00:38:09;;;;;;;20.02;15.82;;;3.70;99.90;;;;;;4988259;28;20060;-72
2021/01/19 00:40:36;;;;;;;20.10;16.70;;;3.70;99.90;;;;;;5006633;28;20108;-71
2021/01/19 00:43:02;;;;;;;25.30;18.58;;;3.70;99.90;;;;;;5023483;28;20064;-71
2021/01/19 00:45:29;;;;;;;27.48;18.48;;;3.70;99.90;;;;;;5029073;28;20113;-71
2021/01/19 00:47:56;;;;;;;27.85;17.88;;;3.70;99.90;;;;;;5036448;28;20049;-72
2021/01/19 00:50:24;;;;;;;21.92;15.38;;;3.70;99.90;;;;;;5042432;28;20660;-72
2021/01/19 00:52:51;;;;;;;24.52;17.77;;;3.70;99.90;;;;;;5026503;28;20053;-72
2021/01/19 00:55:17;;;;;;;23.05;17.85;;;3.70;99.90;;;;;;5026452;28;20053;-72
2021/01/19 00:57:47;;;;;;;24.17;16.23;;;3.70;99.90;;;;;;5011871;28;20064;-70
2021/01/19 01:00:17;;;;;;;20.85;15.95;;;3.70;99.90;;;;;;5010845;28;20431;-72
2021/01/19 01:02:44;;;;;;;21.67;15.30;;;3.70;99.90;;;;;;5024618;28;20539;-72
2021/01/19 01:05:11;;;;;;;24.45;17.60;;;3.70;99.90;;;;;;5009745;28;20072;-71
2021/01/19 01:07:41;;;;;;;21.02;16.48;;;3.70;99.90;;;;;;5021613;28;20575;-71
2021/01/19 01:10:10;;;;;;;21.38;15.98;;;3.70;99.90;;;;;;5027782;28;20050;-71
2021/01/19 01:12:36;;;;;;;19.88;17.08;;;3.70;99.90;;;;;;5009346;28;20124;-71
2021/01/19 01:15:04;;;;;;;21.30;18.08;;;3.70;99.90;;;;;;5026444;28;20132;-72
2021/01/19 01:17:40;;;;;;;18.27;15.40;;;3.70;99.90;;;;;;5022339;28;20534;-71
2021/01/19 01:20:11;;;;;;;18.92;15.68;;;3.70;99.90;;;;;;5009423;28;20061;-72
2021/01/19 01:22:45;;;;;;;21.42;16.23;;;3.70;99.90;;;;;;5022314;28;20044;-71
2021/01/19 01:25:13;;;;;;;22.33;16.70;;;3.70;99.90;;;;;;5026183;28;20053;-71
2021/01/19 01:27:40;;;;;;;26.38;16.20;;;3.70;99.90;;;;;;5025238;28;20103;-72
2021/01/19 01:30:08;;;;;;;18.45;15.50;;;3.60;99.90;;;;;;5013074;28;20132;-71
2021/01/19 01:32:41;;;;;;;17.42;15.45;;;3.70;99.90;;;;;;5025624;28;20045;-72
2021/01/19 01:35:09;;;;;;;17.88;15.23;;;3.60;99.90;;;;;;5027067;28;20596;-72
2021/01/19 01:37:42;;;;;;;15.65;13.88;;;3.60;99.90;;;;;;5026385;28;20053;-73
2021/01/19 01:40:09;;;;;;;15.07;12.98;;;3.60;99.90;;;;;;5025883;28;20049;-71
2021/01/19 01:42:35;;;;;;;15.63;13.82;;;3.60;99.90;;;;;;5025641;28;20053;-72
2021/01/19 01:45:03;;;;;;;14.57;12.75;;;3.60;99.90;;;;;;5008897;28;20049;-72
2021/01/19 01:47:30;;;;;;;14.68;11.82;;;3.60;99.90;;;;;;5048550;28;20045;-71
2021/01/19 01:49:57;;;;;;;14.32;12.25;;;3.60;99.90;;;;;;5062661;28;20085;-71
2021/01/19 01:52:28;;;;;;;14.30;10.43;;;3.50;99.90;;;;;;5035409;28;20037;-70
2021/01/19 01:54:55;;;;;;;15.05;12.25;;;3.50;99.90;;;;;;5043194;28;20053;-72
2021/01/19 01:57:22;;;;;;;16.92;12.82;;;3.40;99.90;;;;;;5064892;28;20080;-72
2021/01/19 01:59:50;;;;;;;17.20;11.80;;;3.40;99.90;;;;;;5043781;28;20052;-71
2021/01/19 02:02:17;;;;;;;16.38;11.20;;;3.40;99.90;;;;;;5025566;28;20502;-72
2021/01/19 02:04:43;;;;;;;19.40;13.40;;;3.40;99.90;;;;;;5025003;28;20064;-72
2021/01/19 02:07:38;;;;;;;15.70;11.65;;;3.40;99.90;;;;;;5008379;28;20053;-73
2021/01/19 02:10:24;;;;;;;16.42;12.18;;;3.40;99.90;;;;;;5025637;28;20238;-73
2021/01/19 02:12:57;;;;;;;16.27;11.98;;;3.30;99.90;;;;;;5024099;28;20049;-72
2021/01/19 02:15:40;;;;;;;16.17;11.63;;;3.30;99.90;;;;;;4987981;28;20048;-72
2021/01/19 02:18:44;;;;;;;14.77;12.20;;;3.30;99.90;;;;;;5023126;28;20045;-73
2021/01/19 02:21:29;;;;;;;14.32;11.10;;;3.20;99.90;;;;;;5006164;28;20042;-73
2021/01/19 02:24:27;;;;;;;12.77;10.23;;;3.20;99.90;;;;;;5008247;28;20500;-72
2021/01/19 02:27:05;;;;;;;12.95;10.15;;;3.20;99.90;;;;;;5025129;28;20041;-72
2021/01/19 02:29:54;;;;;;;13.32;10.52;;;3.30;99.90;;;;;;5008172;28;20059;-72
2021/01/19 02:32:40;;;;;;;13.57;10.05;;;3.30;99.90;;;;;;4979600;28;20072;-72
2021/01/19 02:35:19;;;;;;;15.27;11.27;;;3.30;99.90;;;;;;4990329;28;20045;-73
2021/01/19 02:38:04;;;;;;;12.75;10.35;;;3.30;99.90;;;;;;5020894;28;20068;-72
2021/01/19 02:40:30;;;;;;;13.52;10.68;;;3.30;99.90;;;;;;4988671;28;20421;-71
2021/01/19 02:43:09;;;;;;;13.27;10.07;;;3.30;99.90;;;;;;5024467;28;20096;-72
2021/01/19 02:45:37;;;;;;;15.10;11.50;;;3.30;99.90;;;;;;5027441;28;20049;-71
2021/01/19 02:48:05;;;;;;;12.88;9.63;;;3.30;99.90;;;;;;5055097;28;20503;-73
2021/01/19 02:50:32;;;;;;;12.15;10.15;;;3.30;99.90;;;;;;5041314;28;20133;-72
2021/01/19 02:52:59;;;;;;;14.30;10.40;;;3.30;99.90;;;;;;5007892;28;20049;-72
2021/01/19 02:55:27;;;;;;;10.80;9.43;;;3.30;99.90;;;;;;5024846;28;20057;-72
2021/01/19 02:58:17;;;;;;;12.23;9.95;;;3.30;99.90;;;;;;5008353;28;20136;-72
2021/01/19 03:01:01;;;;;;;12.93;9.80;;;3.20;99.90;;;;;;5022869;28;20075;-71
2021/01/19 03:03:39;;;;;;;13.07;9.80;;;3.30;99.90;;;;;;5022363;28;20760;-71
2021/01/19 03:06:10;;;;;;;11.95;9.52;;;3.30;99.90;;;;;;5004012;28;20046;-71
2021/01/19 03:08:40;;;;;;;11.40;9.07;;;3.30;99.90;;;;;;5024731;28;20049;-72
2021/01/19 03:11:07;;;;;;;12.27;9.25;;;3.40;99.90;;;;;;5020354;28;20116;-72
2021/01/19 03:13:35;;;;;;;12.10;8.05;;;3.40;99.90;;;;;;4991003;28;20559;-72
2021/01/19 03:16:09;;;;;;;10.80;9.70;;;3.40;99.90;;;;;;5018520;28;20061;-72
2021/01/19 03:18:37;;;;;;;10.65;9.55;;;3.40;99.90;;;;;;5024535;28;20130;-72
2021/01/19 03:21:05;;;;;;;11.45;10.27;;;3.50;99.90;;;;;;4990042;28;20103;-70
2021/01/19 03:23:32;;;;;;;10.30;9.30;;;3.50;99.90;;;;;;5022586;28;20131;-71
2021/01/19 03:25:59;;;;;;;11.55;9.82;;;3.60;99.90;;;;;;5004882;28;20049;-71
2021/01/19 03:28:26;;;;;;;10.32;9.38;;;3.60;99.90;;;;;;5006185;28;20037;-71
2021/01/19 03:30:53;;;;;;;12.48;11.18;;;3.60;99.90;;;;;;5022351;28;20125;-71
2021/01/19 03:33:20;;;;;;;12.93;11.25;;;3.70;99.90;;;;;;5022884;28;20049;-71
2021/01/19 03:35:46;;;;;;;12.35;11.00;;;3.70;99.90;;;;;;5021051;28;20073;-72
2021/01/19 03:38:13;;;;;;;11.95;10.95;;;3.70;99.90;;;;;;5022600;28;20091;-72
2021/01/19 03:40:40;;;;;;;10.93;10.23;;;3.70;99.90;;;;;;5023853;28;20136;-70
2021/01/19 03:43:08;;;;;;;13.10;11.77;;;3.70;99.90;;;;;;5007531;28;20052;-72
2021/01/19 03:45:35;;;;;;;11.98;10.82;;;3.70;99.90;;;;;;4989921;28;20135;-72
2021/01/19 03:48:02;;;;;;;12.10;11.10;;;3.70;99.90;;;;;;5005162;28;20508;-71
2021/01/19 03:50:29;;;;;;;11.65;10.77;;;3.70;99.90;;;;;;5007002;28;20049;-71
2021/01/19 03:52:56;;;;;;;11.52;10.73;;;3.70;99.90;;;;;;5021574;28;20056;-72
2021/01/19 03:55:22;;;;;;;13.15;12.15;;;3.70;99.90;;;;;;5007889;28;20531;-72
2021/01/19 03:57:49;;;;;;;12.25;11.45;;;3.70;99.90;;;;;;4991559;28;20065;-71
2021/01/19 04:00:17;;;;;;;12.57;11.65;;;3.70;99.90;;;;;;5023926;28;20073;-71
2021/01/19 04:02:43;;;;;;;13.45;12.15;;;3.70;99.90;;;;;;4986709;28;20053;-72
2021/01/19 04:05:10;;;;;;;13.52;12.32;;;3.70;99.90;;;;;;5022689;28;20053;-71
2021/01/19 04:07:39;;;;;;;14.48;13.23;;;3.70;99.90;;;;;;5025226;28;20049;-71
2021/01/19 04:10:10;;;;;;;12.77;11.48;;;3.70;99.90;;;;;;4991104;28;20045;-72
2021/01/19 04:12:37;;;;;;;13.48;12.50;;;3.70;99.90;;;;;;5004253;28;20049;-71
2021/01/19 04:15:05;;;;;;;12.77;11.80;;;3.70;99.90;;;;;;5004549;28;20044;-72
2021/01/19 04:17:32;;;;;;;12.88;11.95;;;3.70;99.90;;;;;;5023457;28;20084;-71
2021/01/19 04:19:58;;;;;;;14.05;12.90;;;3.70;99.90;;;;;;5007221;28;20037;-72
2021/01/19 04:22:25;;;;;;;14.15;12.88;;;3.70;99.90;;;;;;5022544;28;20096;-70
2021/01/19 04:24:51;;;;;;;14.68;13.23;;;3.60;99.90;;;;;;5011298;28;20115;-71
2021/01/19 04:27:21;;;;;;;14.40;12.95;;;3.60;99.90;;;;;;5010121;28;20347;-71
2021/01/19 04:29:47;;;;;;;15.95;14.40;;;3.60;99.90;;;;;;5024056;28;20104;-70
2021/01/19 04:32:14;;;;;;;14.65;13.13;;;3.60;99.90;;;;;;5022713;28;20049;-71
2021/01/19 04:34:41;;;;;;;15.18;14.00;;;3.60;99.90;;;;;;5010693;28;20046;-71
2021/01/19 04:37:08;;;;;;;14.65;13.25;;;3.60;99.90;;;;;;5026827;28;20053;-72
2021/01/19 04:39:35;;;;;;;14.02;12.85;;;3.50;99.90;;;;;;5011273;28;20063;-71
2021/01/19 04:42:02;;;;;;;15.25;13.77;;;3.60;99.90;;;;;;5010432;28;20060;-71
2021/01/19 04:44:30;;;;;;;13.35;12.23;;;3.60;99.90;;;;;;5009665;28;20053;-72
2021/01/19 04:46:57;;;;;;;12.23;11.43;;;3.60;99.90;;;;;;5009563;28;20060;-71
2021/01/19 04:49:25;;;;;;;12.15;11.45;;;3.60;99.90;;;;;;5018402;28;20136;-71
2021/01/19 04:51:53;;;;;;;13.98;12.60;;;3.60;99.90;;;;;;5018810;28;20516;-72
2021/01/19 04:54:24;;;;;;;13.00;11.98;;;3.60;99.90;;;;;;5010323;28;20132;-72
2021/01/19 04:56:54;;;;;;;15.30;14.00;;;3.60;99.90;;;;;;5024629;28;20172;-71
2021/01/19 04:59:23;;;;;;;12.23;11.43;;;3.50;99.90;;;;;;5026713;28;20096;-71
2021/01/19 05:02:09;;;;;;;13.93;12.93;;;3.50;99.90;;;;;;5024568;28;20053;-72
2021/01/19 05:04:45;;;;;;;14.73;13.38;;;3.50;99.90;;;;;;5027638;28;20140;-71
2021/01/19 05:07:33;;;;;;;15.50;14.18;;;3.50;99.90;;;;;;5009632;28;20062;-71
2021/01/19 05:10:12;;;;;;;14.30;13.23;;;3.50;99.90;;;;;;5026844;28;20053;-72
2021/01/19 05:12:45;;;;;;;13.70;12.82;;;3.40;99.90;;;;;;5014268;28;20155;-71
2021/01/19 05:15:14;;;;;;;13.27;12.48;;;3.40;99.90;;;;;;5025783;28;20076;-71
2021/01/19 05:17:42;;;;;;;12.88;12.10;;;3.40;99.90;;;;;;5008260;28;20060;-71
2021/01/19 05:20:10;;;;;;;14.32;13.13;;;3.50;99.90;;;;;;5007843;28;20073;-71
2021/01/19 05:22:37;;;;;;;31.67;22.33;;;3.50;99.90;;;;;;5007658;28;20052;-71
2021/01/19 05:25:06;;;;;;;16.15;15.05;;;3.50;99.90;;;;;;5027019;28;20407;-71
2021/01/19 05:27:33;;;;;;;15.35;13.73;;;3.50;99.90;;;;;;5007391;28;20088;-71
2021/01/19 05:30:06;;;;;;;14.85;13.45;;;3.50;99.90;;;;;;5024924;28;20048;-71
2021/01/19 05:32:38;;;;;;;15.32;13.90;;;3.50;99.90;;;;;;5037214;28;20523;-71
2021/01/19 05:35:18;;;;;;;12.75;11.85;;;3.50;99.90;;;;;;5044244;28;20148;-71
2021/01/19 05:37:56;;;;;;;13.57;12.65;;;3.50;99.90;;;;;;5045144;28;20047;-71
2021/01/19 05:40:24;;;;;;;13.90;13.00;;;3.50;99.90;;;;;;5044365;28;20049;-71
2021/01/19 05:42:54;;;;;;;14.38;13.13;;;3.50;99.90;;;;;;5028653;28;20049;-70
2021/01/19 05:45:21;;;;;;;14.38;13.18;;;3.50;99.90;;;;;;5044224;28;20072;-71
2021/01/19 05:47:48;;;;;;;14.02;13.13;;;3.50;99.90;;;;;;5034152;28;20077;-71
2021/01/19 05:50:15;;;;;;;14.35;13.13;;;3.50;99.90;;;;;;5025630;28;20037;-71
2021/01/19 05:52:42;;;;;;;15.38;13.90;;;3.50;99.90;;;;;;5040982;28;20064;-71
2021/01/19 05:55:09;;;;;;;13.98;13.07;;;3.60;99.90;;;;;;5046346;28;20079;-71
2021/01/19 05:57:36;;;;;;;14.05;13.05;;;3.60;99.90;;;;;;5045001;28;20606;-70
2021/01/19 06:00:07;;;;;;;13.73;12.75;;;3.60;99.90;;;;;;5028553;28;20048;-70
2021/01/19 06:02:43;;;;;;;14.35;12.05;;;3.60;99.90;;;;;;5038241;28;20037;-70
2021/01/19 06:05:12;;;;;;;13.20;11.98;;;3.60;99.90;;;;;;5042818;28;20052;-71
2021/01/19 06:07:39;;;;;;;14.88;13.43;;;3.60;99.90;;;;;;5027834;28;20221;-71
2021/01/19 06:10:17;;;;;;;16.25;13.32;;;3.60;99.90;;;;;;5045665;28;20106;-71
2021/01/19 06:12:43;;;;;;;16.35;13.85;;;3.60;99.90;;;;;;5041380;28;20215;-71
2021/01/19 06:15:10;;;;;;;16.02;14.63;;;3.60;99.90;;;;;;5027944;28;20045;-71
2021/01/19 06:17:37;;;;;;;14.50;13.20;;;3.60;99.90;;;;;;5043307;28;20513;-70
2021/01/19 06:20:06;;;;;;;14.63;13.18;;;3.60;99.90;;;;;;5027928;28;20045;-72
2021/01/19 06:22:35;;;;;;;13.55;12.35;;;3.60;99.90;;;;;;5043034;28;20096;-71
2021/01/19 06:25:04;;;;;;;18.00;12.35;;;3.60;99.90;;;;;;5044270;28;20045;-73
2021/01/19 06:27:33;;;;;;;17.80;12.23;;;3.60;99.90;;;;;;5027938;28;20063;-73
2021/01/19 06:30:00;;;;;;;12.93;11.73;;;3.60;99.90;;;;;;5024100;28;20052;-74
2021/01/19 06:32:28;;;;;;;13.48;11.93;;;3.50;99.90;;;;;;5043520;28;20446;-73
2021/01/19 06:34:55;;;;;;;10.88;9.93;;;3.50;99.90;;;;;;5027580;28;20462;-74
2021/01/19 06:37:32;;;;;;;12.52;10.40;;;3.50;99.90;;;;;;5043339;28;20495;-74
2021/01/19 06:40:11;;;;;;;12.30;11.20;;;3.50;99.90;;;;;;5011866;28;20099;-74
2021/01/19 06:42:38;;;;;;;10.02;9.32;;;3.50;99.90;;;;;;5016560;28;20068;-74
2021/01/19 06:45:09;;;;;;;10.20;9.20;;;3.50;99.90;;;;;;5015352;28;20072;-73
2021/01/19 06:47:41;;;;;;;11.82;9.35;;;3.40;99.90;;;;;;5021838;28;20087;-74
2021/01/19 06:50:08;;;;;;;13.68;9.55;;;3.40;99.90;;;;;;5022121;28;20052;-74
2021/01/19 06:52:40;;;;;;;11.77;8.68;;;3.40;99.90;;;;;;5006575;28;20049;-73
2021/01/19 06:55:23;;;;;;;13.65;9.20;;;3.50;99.90;;;;;;5008221;28;20262;-74
2021/01/19 06:57:50;;;;;;;12.55;8.15;;;3.40;99.90;;;;;;5024790;28;20056;-74
2021/01/19 07:00:20;;;;;;;10.95;9.73;;;3.50;99.90;;;;;;4990851;28;20794;-74
2021/01/19 07:02:53;;;;;;;9.30;8.18;;;3.50;99.90;;;;;;5023994;28;20356;-73
2021/01/19 07:05:22;;;;;;;9.60;7.68;;;3.50;99.90;;;;;;5023188;28;20042;-74
2021/01/19 07:07:54;;;;;;;8.68;7.97;;;3.50;99.90;;;;;;5025134;28;20049;-73
2021/01/19 07:10:48;;;;;;;9.15;7.57;;;3.50;99.90;;;;;;5007859;28;20144;-74
2021/01/19 07:13:25;;;;;;;12.90;7.25;;;3.60;99.90;;;;;;5022979;28;20061;-74
2021/01/19 07:16:02;;;;;;;9.75;6.93;;;3.60;99.90;;;;;;4986826;28;20057;-73
2021/01/19 07:18:36;;;;;;;8.63;7.82;;;3.60;99.90;;;;;;4999605;28;20083;-74
2021/01/19 07:21:05;;;;;;;9.98;7.45;;;3.60;99.90;;;;;;5020276;28;20057;-74
2021/01/19 07:23:45;;;;;;;8.07;7.30;;;3.60;99.90;;;;;;5023955;28;20071;-74
2021/01/19 07:26:20;;;;;;;10.43;7.03;;;3.60;99.90;;;;;;5024711;28;20128;-73
2021/01/19 07:28:48;;;;;;;6.90;6.18;;;3.70;99.90;;;;;;5024011;28;20045;-74
2021/01/19 07:31:17;;;;;;;11.20;7.63;;;3.70;99.90;;;;;;5006327;28;20068;-74
2021/01/19 07:33:47;;;;;;;10.80;8.65;;;3.70;99.90;;;;;;5023033;28;20068;-73
2021/01/19 07:36:18;;;;;;;7.60;6.90;;;3.70;99.90;;;;;;5017953;28;20042;-73
2021/01/19 07:38:46;;;;;;;8.20;6.65;;;3.80;99.90;;;;;;5024269;28;20132;-72
2021/01/19 07:41:13;;;;;;;7.80;7.10;;;3.80;99.90;;;;;;5041343;28;20539;-74
2021/01/19 07:43:39;;;;;;;10.80;7.40;;;3.80;99.90;;;;;;5030833;28;20450;-73
2021/01/19 07:46:23;;;;;;;10.88;7.70;;;3.80;99.90;;;;;;5017537;28;20131;-72
2021/01/19 07:49:00;;;;;;;8.05;6.97;;;3.80;99.90;;;;;;5003166;28;20676;-74
2021/01/19 07:51:42;;;;;;;12.50;9.07;;;3.70;99.90;;;;;;5017438;28;20045;-71
2021/01/19 07:54:13;;;;;;;25.90;14.05;;;3.80;99.90;;;;;;4988588;28;20041;-73
2021/01/19 07:56:40;;;;;;;32.47;16.70;;;3.80;99.90;;;;;;5002014;28;20037;-72
2021/01/19 07:59:18;;;;;;;7.32;6.40;;;3.80;99.90;;;;;;5007458;28;20277;-73
2021/01/19 08:01:59;;;;;;;39.22;18.70;;;3.80;99.90;;;;;;5020370;28;20060;-71
2021/01/19 08:04:36;;;;;;;16.52;9.35;;;3.70;99.90;;;;;;5019462;28;20041;-73
2021/01/19 08:07:19;;;;;;;8.35;7.50;;;3.70;99.90;;;;;;5022304;28;20548;-72
2021/01/19 08:09:46;;;;;;;7.32;5.60;;;3.60;99.90;;;;;;5025430;28;20053;-71
2021/01/19 08:12:17;;;;;;;5.70;5.28;;;3.50;99.90;;;;;;5049270;28;20052;-73
2021/01/19 08:14:49;;;;;;;5.13;4.80;;;3.60;99.90;;;;;;5058740;28;20063;-72
2021/01/19 08:17:15;;;;;;;11.73;4.40;;;3.60;99.90;;;;;;5013785;28;20041;-71
2021/01/19 08:19:44;;;;;;;8.82;7.10;;;3.60;99.90;;;;;;4995519;28;20069;-72
2021/01/19 08:22:11;;;;;;;5.47;5.03;;;3.60;99.90;;;;;;5000433;28;20069;-73
2021/01/19 08:24:44;;;;;;;9.68;7.05;;;3.60;99.90;;;;;;5023788;28;20060;-71
2021/01/19 08:27:11;;;;;;;5.82;5.40;;;3.60;99.90;;;;;;5023661;28;20099;-72
2021/01/19 08:29:38;;;;;;;6.47;5.93;;;3.60;99.90;;;;;;5024140;28;20054;-70
2021/01/19 08:32:08;;;;;;;5.40;4.97;;;3.60;99.90;;;;;;5005835;28;20049;-72
2021/01/19 08:34:38;;;;;;;7.20;6.40;;;3.60;99.90;;;;;;5006250;28;20246;-72
2021/01/19 08:37:06;;;;;;;6.75;5.57;;;3.70;99.90;;;;;;5019762;28;20453;-73
2021/01/19 08:39:33;;;;;;;7.60;6.20;;;3.60;99.90;;;;;;5023894;28;20463;-72
2021/01/19 08:42:11;;;;;;;6.43;5.80;;;3.70;99.90;;;;;;5022750;28;20045;-71
2021/01/19 08:44:38;;;;;;;7.10;6.40;;;3.70;99.90;;;;;;5023790;28;20119;-71
2021/01/19 08:47:05;;;;;;;12.05;7.00;;;3.60;99.90;;;;;;5005123;28;20494;-70
2021/01/19 08:49:35;;;;;;;7.57;6.57;;;3.70;99.90;;;;;;5023999;28;20056;-73
2021/01/19 08:52:02;;;;;;;7.82;6.00;;;3.70;99.90;;;;;;5021452;28;20049;-71
2021/01/19 08:54:32;;;;;;;6.15;5.57;;;3.70;99.90;;;;;;5024277;28;20526;-73
2021/01/19 08:56:59;;;;;;;7.25;6.55;;;3.70;99.90;;;;;;5029499;28;20060;-72
2021/01/19 08:59:51;;;;;;;9.00;8.13;;;3.70;99.90;;;;;;5046243;28;20072;-72
2021/01/19 09:02:18;;;;;;;7.47;6.88;;;3.80;99.90;;;;;;5002878;28;20088;-73
2021/01/19 09:04:45;;;;;;;8.35;7.50;;;3.80;99.90;;;;;;5021759;28;20042;-73
2021/01/19 09:07:12;;;;;;;8.63;6.95;;;3.80;99.90;;;;;;5018894;28;20123;-72
2021/01/19 09:09:46;;;;;;;12.57;8.65;;;3.80;99.90;;;;;;5026151;28;20049;-72
2021/01/19 09:12:17;;;;;;;7.38;6.70;;;3.90;99.90;;;;;;4992021;28;20050;-73
2021/01/19 09:14:54;;;;;;;5.40;5.10;;;3.90;99.90;;;;;;5027277;28;20096;-72
2021/01/19 09:17:27;;;;;;;6.55;5.90;;;4.10;99.90;;;;;;5020265;28;20057;-72
2021/01/19 09:20:05;;;;;;;7.30;6.63;;;4.20;99.90;;;;;;5011427;28;20071;-72
2021/01/19 09:22:34;;;;;;;7.32;6.72;;;4.30;99.90;;;;;;5019454;28;20123;-71
2021/01/19 09:25:02;;;;;;;6.35;6.00;;;4.30;99.90;;;;;;5026973;28;20053;-73
2021/01/19 09:27:28;;;;;;;6.05;5.65;;;4.40;99.90;;;;;;5025839;28;20065;-73
2021/01/19 09:30:12;;;;;;;6.10;5.80;;;4.30;99.90;;;;;;5009228;28;20060;-73
2021/01/19 09:32:43;;;;;;;6.35;5.85;;;4.40;99.90;;;;;;5020974;28;20562;-73
2021/01/19 09:35:11;;;;;;;5.55;5.22;;;4.40;99.90;;;;;;5008076;28;20052;-71
2021/01/19 09:37:39;;;;;;;5.53;5.22;;;4.40;99.90;;;;;;5021855;28;20054;-73
2021/01/19 09:40:07;;;;;;;6.50;6.20;;;4.40;99.90;;;;;;5010132;28;20053;-72
2021/01/19 09:42:41;;;;;;;7.30;6.63;;;4.30;99.90;;;;;;5026134;28;20049;-73
2021/01/19 09:45:11;;;;;;;7.57;6.90;;;4.30;99.90;;;;;;5025912;28;20049;-73
2021/01/19 09:47:41;;;;;;;6.32;6.00;;;4.30;99.90;;;;;;5004098;28;20052;-71
2021/01/19 09:50:11;;;;;;;7.78;7.07;;;4.20;99.90;;;;;;5027652;28;20081;-73
2021/01/19 09:52:44;;;;;;;7.00;6.60;;;4.20;99.90;;;;;;5003624;28;20041;-73
2021/01/19 09:55:17;;;;;;;7.35;6.75;;;4.20;99.90;;;;;;5008359;28;20060;-70
2021/01/19 09:57:44;;;;;;;9.13;8.27;;;4.20;99.90;;;;;;5025560;28;20057;-72
2021/01/19 10:00:11;;;;;;;8.57;7.68;;;4.10;99.90;;;;;;5025799;28;20087;-73
2021/01/19 10:02:40;;;;;;;6.57;6.18;;;4.10;99.90;;;;;;5024651;28;20132;-71
2021/01/19 10:05:08;;;;;;;5.70;5.20;;;4.10;99.90;;;;;;4992813;28;20619;-72
2021/01/19 10:07:35;;;;;;;6.13;5.75;;;4.10;99.90;;;;;;5021850;28;20057;-73
2021/01/19 10:10:09;;;;;;;5.10;4.90;;;4.10;99.90;;;;;;5025597;28;20049;-71
2021/01/19 10:12:35;;;;;;;5.32;4.93;;;4.10;99.90;;;;;;5022831;28;20118;-71
2021/01/19 10:15:02;;;;;;;5.63;5.43;;;4.00;99.90;;;;;;5024992;28;20050;-73
2021/01/19 10:17:33;;;;;;;6.25;5.85;;;4.00;99.90;;;;;;4992579;28;20099;-73
2021/01/19 10:20:14;;;;;;;5.10;4.90;;;4.00;99.90;;;;;;5007100;28;20065;-72
2021/01/19 10:22:43;;;;;;;6.88;5.00;;;4.00;99.90;;;;;;5023859;28;20049;-73
2021/01/19 10:25:25;;;;;;;5.10;4.90;;;4.00;99.90;;;;;;5006616;28;20052;-72
2021/01/19 10:28:00;;;;;;;5.10;4.80;;;4.00;99.90;;;;;;5022088;28;20041;-70
2021/01/19 10:30:40;;;;;;;5.15;4.93;;;4.00;99.90;;;;;;5006048;28;20068;-72
2021/01/19 10:33:06;;;;;;;5.60;5.40;;;4.00;99.90;;;;;;5015590;28;20049;-73
2021/01/19 10:35:35;;;;;;;5.75;5.47;;;4.00;99.90;;;;;;5020226;28;20522;-73
2021/01/19 10:38:07;;;;;;;4.93;4.72;;;4.00;99.90;;;;;;4990267;28;20046;-71
2021/01/19 10:40:35;;;;;;;5.63;5.43;;;4.00;99.90;;;;;;4992465;28;20492;-73
2021/01/19 10:43:09;;;;;;;4.70;4.60;;;4.00;99.90;;;;;;5008331;28;20045;-73
2021/01/19 10:45:38;;;;;;;5.40;5.20;;;4.00;99.90;;;;;;5023207;28;20049;-73
2021/01/19 10:48:16;;;;;;;5.63;5.43;;;4.00;99.90;;;;;;5008345;28;20054;-73
2021/01/19 10:50:42;;;;;;;5.68;5.38;;;4.00;99.90;;;;;;5021220;28;20528;-72
2021/01/19 10:53:09;;;;;;;5.15;4.93;;;4.00;99.90;;;;;;5024065;28;20504;-73
2021/01/19 10:55:36;;;;;;;4.68;4.47;;;4.00;99.90;;;;;;5024461;28;20103;-73
2021/01/19 10:58:04;;;;;;;4.70;4.50;;;4.00;99.90;;;;;;4991568;28;20331;-73
2021/01/19 11:00:32;;;;;;;5.05;4.85;;;4.00;99.90;;;;;;5009882;28;20078;-72
2021/01/19 11:02:59;;;;;;;5.40;5.10;;;4.00;99.90;;;;;;5048344;28;20045;-74
2021/01/19 11:05:27;;;;;;;5.90;5.60;;;4.00;99.90;;;;;;5043556;28;20563;-72
2021/01/19 11:07:54;;;;;;;5.10;4.80;;;4.00;99.90;;;;;;5025860;28;20060;-72
2021/01/19 11:10:23;;;;;;;5.72;5.40;;;4.10;99.90;;;;;;5019810;28;20041;-71
2021/01/19 11:12:52;;;;;;;4.90;4.70;;;4.10;99.90;;;;;;5019166;28;20065;-71
2021/01/19 11:15:18;;;;;;;4.50;4.30;;;4.20;99.90;;;;;;5006694;28;20054;-72
2021/01/19 11:17:49;;;;;;;4.28;4.07;;;4.20;99.90;;;;;;5023820;28;20099;-72
2021/01/19 11:20:16;;;;;;;6.10;5.70;;;4.30;99.90;;;;;;5006897;28;20501;-73
2021/01/19 11:22:45;;;;;;;4.72;4.43;;;4.20;99.90;;;;;;5000339;28;20420;-73
2021/01/19 11:25:13;;;;;;;7.32;6.43;;;4.30;99.90;;;;;;5022997;28;20140;-71
2021/01/19 11:27:39;;;;;;;5.68;5.38;;;4.30;99.90;;;;;;5025183;28;20192;-71
2021/01/19 11:30:07;;;;;;;4.70;4.50;;;4.30;99.90;;;;;;5007339;28;20111;-72
2021/01/19 11:32:34;;;;;;;4.57;4.38;;;4.30;99.90;;;;;;5006748;28;20073;-73
2021/01/19 11:35:01;;;;;;;4.97;4.78;;;4.30;99.90;;;;;;5022683;28;20327;-74
2021/01/19 11:37:27;;;;;;;4.30;4.10;;;4.30;99.90;;;;;;5046622;28;20139;-74
2021/01/19 11:39:53;;;;;;;4.53;4.18;;;4.30;99.90;;;;;;5048812;28;20060;-71
2021/01/19 11:42:20;;;;;;;4.60;4.40;;;4.30;99.90;;;;;;5026853;28;20064;-73
2021/01/19 11:44:47;;;;;;;4.50;4.20;;;4.40;99.90;;;;;;5027435;28;20071;-73
2021/01/19 11:47:13;;;;;;;4.43;4.22;;;4.40;99.90;;;;;;5016676;28;20132;-73
2021/01/19 11:49:48;;;;;;;4.30;4.10;;;4.40;99.90;;;;;;5023938;28;20045;-72
2021/01/19 11:52:18;;;;;;;4.57;4.28;;;4.40;99.90;;;;;;5040613;28;20048;-72
2021/01/19 11:54:45;;;;;;;4.90;4.55;;;4.50;99.90;;;;;;5009879;28;20187;-73
2021/01/19 11:57:11;;;;;;;4.20;3.90;;;4.50;99.90;;;;;;5009200;28;20041;-73
2021/01/19 11:59:37;;;;;;;3.75;3.60;;;4.50;99.90;;;;;;5026877;28;20083;-74
2021/01/19 12:02:04;;;;;;;3.58;3.30;;;4.60;99.90;;;;;;5037480;28;20507;-72
2021/01/19 12:04:31;;;;;;;5.90;4.32;;;4.60;99.90;;;;;;5044506;28;20099;-74
2021/01/19 12:06:59;;;;;;;4.18;3.88;;;4.70;99.90;;;;;;5026277;28;20048;-72
2021/01/19 12:09:26;;;;;;;3.53;3.33;;;4.60;99.90;;;;;;5026601;28;20048;-74
2021/01/19 12:11:54;;;;;;;3.55;3.35;;;4.70;99.90;;;;;;5042674;28;20041;-71
2021/01/19 12:14:22;;;;;;;3.20;3.10;;;4.70;99.90;;;;;;5042685;28;20677;-72
2021/01/19 12:16:53;;;;;;;3.30;3.10;;;4.70;99.90;;;;;;5038407;28;20040;-72
2021/01/19 12:19:21;;;;;;;3.67;3.40;;;4.70;99.90;;;;;;5042492;28;20131;-74
2021/01/19 12:21:52;;;;;;;3.20;3.00;;;4.70;99.90;;;;;;5026393;28;20503;-73
2021/01/19 12:24:20;;;;;;;2.88;2.78;;;4.70;99.90;;;;;;5042592;28;20566;-73
2021/01/19 12:26:49;;;;;;;2.58;2.47;;;4.70;99.90;;;;;;5027237;28;20136;-71
2021/01/19 12:29:18;;;;;;;2.35;2.25;;;4.70;99.90;;;;;;5042951;28;20118;-73
2021/01/19 12:31:45;;;;;;;2.50;2.40;;;4.70;99.90;;;;;;5034905;28;20051;-73
2021/01/19 12:34:12;;;;;;;2.33;2.22;;;4.70;99.90;;;;;;5009732;28;20048;-73
2021/01/19 12:36:39;;;;;;;2.00;1.90;;;4.70;99.90;;;;;;5039110;28;20056;-73
2021/01/19 12:39:05;;;;;;;1.70;1.60;;;4.60;99.90;;;;;;5043160;28;20064;-73
2021/01/19 12:41:36;;;;;;;2.00;1.90;;;4.70;99.90;;;;;;5026994;28;20095;-72
2021/01/19 12:44:05;;;;;;;2.63;2.42;;;4.70;99.90;;;;;;5044844;28;20083;-72
2021/01/19 12:46:33;;;;;;;2.45;2.25;;;4.70;99.90;;;;;;5042098;28;20045;-72
2021/01/19 12:48:59;;;;;;;1.60;1.50;;;4.80;99.90;;;;;;5046706;28;20065;-72
2021/01/19 12:51:26;;;;;;;1.70;1.60;;;4.80;99.90;;;;;;5042066;28;20037;-72
2021/01/19 12:53:52;;;;;;;2.15;1.92;;;4.90;99.90;;;;;;5047152;28;20052;-72
2021/01/19 12:56:20;;;;;;;1.80;1.70;;;5.00;99.90;;;;;;5046633;28;20080;-73
2021/01/19 12:58:48;;;;;;;1.63;1.52;;;5.00;99.90;;;;;;5014395;28;20072;-73
2021/01/19 13:01:14;;;;;;;1.63;1.52;;;5.00;99.90;;;;;;5044069;28;20530;-73